Flugplatz Kehl-Sundheim

Für EDSK sind keine METAR/TAF Berichte vorhanden.
Es werden die Flugwettermeldungen vom Flugplatz Lahr in 21 km Entfernung angezeigt.

Bericht für EDTL

vom 07.08. um 17:50 UTC

Wind 6 kt aus 350°

Sichtweite 10 km oder mehr

gute Sicht, keine Wolken < 5000 ft, keine CB, keine Wettererscheinungen (CAVOK)

Temperatur 32.0°C

Taupunkt 18.0°C

Luftfeuchtigkeit 43%

Luftdruck 1017 hPa

EDTL 071750Z 35006KT CAVOK 32/18 Q1017

Prognose für EDTL

vom 07.08. um 17:00 UTC

Zwischen 18:00 UTC und 00:00 UTC

Wind 4 kt aus 30°

Sichtweite 10 km oder mehr

keine signifikanten Wettererscheinungen

keine Wolken

TAF EDTL 071700Z 0718/0724 03004KT CAVOK
Impressum